Time;durP1;ratioP1;P1;durP2;ratioP2;P2;SDS_P1;SDS_P2;PMS_P1;PMS_P2;Temp;Humidity;BMP_temperature;BMP_pressure;BME280_temperature;BME280_humidity;BME280_pressure;Samples;Min_cycle;Max_cycle;Signal;HPM_P1;HPM_P2
2023/09/29 00:00:31;;;;;;;19.35;7.18;;;16.00;99.90;;;;;;5025389;28;20045;-51
2023/09/29 00:02:57;;;;;;;21.13;7.63;;;16.00;99.90;;;;;;5007091;28;20095;-50
2023/09/29 00:05:23;;;;;;;18.50;7.32;;;15.90;99.90;;;;;;5026378;28;20045;-51
2023/09/29 00:07:51;;;;;;;21.35;7.88;;;15.90;99.90;;;;;;5025330;28;20056;-48
2023/09/29 00:10:17;;;;;;;25.17;7.63;;;15.90;99.90;;;;;;5026274;28;20045;-54
2023/09/29 00:12:44;;;;;;;20.20;7.20;;;15.80;99.90;;;;;;5020422;28;20033;-51
2023/09/29 00:15:10;;;;;;;24.05;8.23;;;15.80;99.90;;;;;;4996927;28;20099;-54
2023/09/29 00:17:37;;;;;;;16.55;7.28;;;15.80;99.90;;;;;;5005392;28;20045;-51
2023/09/29 00:20:23;;;;;;;20.27;7.50;;;15.80;99.90;;;;;;5005614;28;20081;-53
2023/09/29 00:22:52;;;;;;;20.85;7.50;;;15.80;99.90;;;;;;5004958;28;20042;-50
2023/09/29 00:25:18;;;;;;;18.52;7.10;;;15.70;99.90;;;;;;5005729;28;20060;-47
2023/09/29 00:27:44;;;;;;;20.10;7.45;;;15.80;99.90;;;;;;5005511;28;20123;-54
2023/09/29 00:30:12;;;;;;;17.38;8.23;;;15.70;99.90;;;;;;5005050;28;20707;-50
2023/09/29 00:32:46;;;;;;;17.08;7.13;;;15.80;99.90;;;;;;5005513;28;20057;-53
2023/09/29 00:35:18;;;;;;;;;;;15.70;99.90;;;;;;5006328;28;20434;-54
2023/09/29 00:37:44;;;;;;;25.08;7.97;;;15.70;99.90;;;;;;5005061;28;19968;-54
2023/09/29 00:40:12;;;;;;;20.20;7.25;;;15.80;99.90;;;;;;5005589;28;20081;-52
2023/09/29 00:42:39;;;;;;;19.60;7.88;;;15.70;99.90;;;;;;5005341;28;20760;-50
2023/09/29 00:45:06;;;;;;;20.02;7.45;;;15.80;99.90;;;;;;5004865;28;20072;-52
2023/09/29 00:47:32;;;;;;;17.15;7.50;;;15.70;99.90;;;;;;5004768;28;20046;-51
2023/09/29 00:49:58;;;;;;;20.75;7.63;;;15.70;99.90;;;;;;5005790;28;20058;-50
2023/09/29 00:52:24;;;;;;;19.38;7.70;;;15.60;99.90;;;;;;5004880;28;20061;-52
2023/09/29 00:54:51;;;;;;;15.48;6.80;;;15.70;99.90;;;;;;5005300;28;20078;-51
2023/09/29 00:57:17;;;;;;;18.23;7.38;;;15.70;99.90;;;;;;4997403;28;20041;-53
2023/09/29 00:59:46;;;;;;;20.02;7.57;;;15.60;99.90;;;;;;5005513;28;20056;-52
2023/09/29 01:02:14;;;;;;;17.13;7.57;;;15.70;99.90;;;;;;5004936;28;20041;-53
2023/09/29 01:04:40;;;;;;;22.75;7.50;;;15.60;99.90;;;;;;5004011;28;20046;-52
2023/09/29 01:09:36;;;;;;;18.17;7.00;;;15.60;99.90;;;;;;5024239;28;20085;-52
2023/09/29 01:12:04;;;;;;;18.63;6.90;;;15.70;99.90;;;;;;5015225;28;20049;-54
2023/09/29 01:14:30;;;;;;;19.23;7.63;;;15.70;99.90;;;;;;5010020;28;20041;-52
2023/09/29 01:16:56;;;;;;;16.90;6.85;;;15.70;99.90;;;;;;5021537;28;20099;-51
2023/09/29 01:19:21;;;;;;;22.05;7.40;;;15.70;99.90;;;;;;5020826;28;20037;-49
2023/09/29 01:21:47;;;;;;;18.55;7.13;;;15.80;99.90;;;;;;4989862;28;20165;-53
2023/09/29 01:24:14;;;;;;;19.80;7.15;;;15.80;99.90;;;;;;5021605;28;20545;-50
2023/09/29 01:26:44;;;;;;;17.15;6.50;;;15.80;99.90;;;;;;5003632;28;20141;-48
2023/09/29 01:29:11;;;;;;;18.25;6.80;;;15.80;99.90;;;;;;5004368;28;20377;-51
2023/09/29 01:31:37;;;;;;;14.43;6.18;;;15.80;99.90;;;;;;5018874;28;20029;-52
2023/09/29 01:34:04;;;;;;;16.40;6.28;;;15.90;99.90;;;;;;5018554;28;20432;-50
2023/09/29 01:36:30;;;;;;;18.75;6.78;;;15.70;99.90;;;;;;5012978;28;20050;-49
2023/09/29 01:38:56;;;;;;;16.02;6.43;;;15.80;99.90;;;;;;5003396;28;20476;-50
2023/09/29 01:41:22;;;;;;;15.55;6.55;;;15.80;99.90;;;;;;5003939;28;20057;-50
2023/09/29 01:43:47;;;;;;;17.13;6.70;;;15.80;99.90;;;;;;5004542;28;20038;-47
2023/09/29 01:46:15;;;;;;;16.60;6.43;;;15.90;99.90;;;;;;5005572;28;20137;-52
2023/09/29 01:48:41;;;;;;;20.30;7.20;;;15.70;99.90;;;;;;5023216;28;20138;-49
2023/09/29 01:51:07;;;;;;;17.30;6.80;;;15.70;99.90;;;;;;4990087;28;20041;-50
2023/09/29 01:53:33;;;;;;;18.75;7.00;;;15.70;99.90;;;;;;5023510;28;20045;-50
2023/09/29 01:55:59;;;;;;;19.30;6.72;;;15.70;99.90;;;;;;5020088;28;20133;-50
2023/09/29 01:58:26;;;;;;;20.15;7.50;;;15.70;99.90;;;;;;5012475;28;20049;-49
2023/09/29 02:00:52;;;;;;;17.73;7.32;;;15.70;99.90;;;;;;5004162;28;20050;-50
2023/09/29 02:03:18;;;;;;;16.13;6.45;;;15.70;99.90;;;;;;5002652;28;20037;-50
2023/09/29 02:05:44;;;;;;;21.60;7.82;;;15.70;99.90;;;;;;5002128;28;20045;-49
2023/09/29 02:08:10;;;;;;;19.90;6.90;;;15.70;99.90;;;;;;5003615;28;20488;-50
2023/09/29 02:10:36;;;;;;;20.63;7.40;;;15.70;99.90;;;;;;4986134;28;20046;-50
2023/09/29 02:13:04;;;;;;;13.95;6.20;;;15.80;99.90;;;;;;5003758;28;20084;-50
2023/09/29 02:15:34;;;;;;;16.95;6.65;;;15.70;99.90;;;;;;5003136;28;20056;-50
2023/09/29 02:18:04;;;;;;;17.95;6.65;;;15.80;99.90;;;;;;5002795;28;20584;-49
2023/09/29 02:20:30;;;;;;;18.58;6.80;;;15.90;99.90;;;;;;5003682;28;20093;-50
2023/09/29 02:23:00;;;;;;;16.98;6.70;;;15.80;99.90;;;;;;5002904;28;20464;-51
2023/09/29 02:25:26;;;;;;;18.75;7.15;;;15.80;99.90;;;;;;5003350;28;20050;-49
2023/09/29 02:27:59;;;;;;;21.63;7.68;;;15.80;99.90;;;;;;5003414;28;20046;-54
2023/09/29 02:30:25;;;;;;;16.27;6.95;;;15.80;99.90;;;;;;4985738;28;20054;-52
2023/09/29 02:32:55;;;;;;;18.05;7.35;;;15.80;99.90;;;;;;5002365;28;20495;-53
2023/09/29 02:35:22;;;;;;;18.00;6.90;;;15.90;99.90;;;;;;5003751;28;20168;-53
2023/09/29 02:37:48;;;;;;;15.02;6.65;;;15.80;99.90;;;;;;5002352;28;20054;-54
2023/09/29 02:40:16;;;;;;;15.27;6.95;;;15.80;99.90;;;;;;5002181;28;20037;-50
2023/09/29 02:42:46;;;;;;;16.95;6.93;;;15.80;99.90;;;;;;4985699;28;20053;-52
2023/09/29 02:45:12;;;;;;;19.00;7.63;;;15.80;99.90;;;;;;5002563;28;20042;-53
2023/09/29 02:47:42;;;;;;;18.95;7.55;;;15.80;99.90;;;;;;5001955;28;20140;-53
2023/09/29 02:50:12;;;;;;;17.08;7.72;;;15.80;99.90;;;;;;5003270;28;20076;-51
2023/09/29 02:52:39;;;;;;;18.55;8.68;;;15.70;99.90;;;;;;5002008;28;20065;-52
2023/09/29 02:55:07;;;;;;;20.80;9.02;;;15.80;99.90;;;;;;5003517;28;20057;-52
2023/09/29 02:57:33;;;;;;;15.68;7.93;;;15.80;99.90;;;;;;5014457;28;20037;-51
2023/09/29 02:59:59;;;;;;;20.10;9.05;;;15.80;99.90;;;;;;5002609;28;20378;-53
2023/09/29 03:02:25;;;;;;;15.60;8.15;;;15.80;99.90;;;;;;4985781;28;20064;-53
2023/09/29 03:04:51;;;;;;;20.83;7.88;;;15.80;99.90;;;;;;5002960;28;20121;-48
2023/09/29 03:07:20;;;;;;;16.75;9.18;;;15.80;99.90;;;;;;5002790;28;20044;-48
2023/09/29 03:09:45;;;;;;;20.20;9.20;;;15.80;99.90;;;;;;5002622;28;20068;-53
2023/09/29 03:12:11;;;;;;;21.75;9.50;;;15.80;99.90;;;;;;5002440;28;20562;-49
2023/09/29 03:14:37;;;;;;;16.58;8.48;;;15.90;99.90;;;;;;5003088;28;20054;-53
2023/09/29 03:17:03;;;;;;;19.88;9.05;;;15.80;99.90;;;;;;4984108;28;20069;-53
2023/09/29 03:19:30;;;;;;;18.73;9.48;;;15.80;99.90;;;;;;5003006;28;20046;-50
2023/09/29 03:21:58;;;;;;;19.52;9.35;;;15.80;99.90;;;;;;5003520;28;20140;-51
2023/09/29 03:24:28;;;;;;;17.73;8.88;;;15.80;99.90;;;;;;5001790;28;20089;-53
2023/09/29 03:26:54;;;;;;;21.10;9.02;;;15.90;99.90;;;;;;5002114;28;20128;-52
2023/09/29 03:29:19;;;;;;;16.55;8.73;;;15.90;99.90;;;;;;5003119;28;20052;-54
2023/09/29 03:31:46;;;;;;;17.25;8.95;;;15.90;99.90;;;;;;5002294;28;20042;-48
2023/09/29 03:34:14;;;;;;;21.15;9.13;;;16.00;99.90;;;;;;5002357;28;20084;-52
2023/09/29 03:36:39;;;;;;;17.67;9.48;;;16.00;99.90;;;;;;5011594;28;20072;-52
2023/09/29 03:39:06;;;;;;;18.85;10.10;;;15.90;99.90;;;;;;5005332;28;20042;-51
2023/09/29 03:41:33;;;;;;;20.60;10.05;;;16.00;99.90;;;;;;5001674;28;20037;-50
2023/09/29 03:43:59;;;;;;;23.30;11.18;;;16.00;99.90;;;;;;4984884;28;20435;-50
2023/09/29 03:46:25;;;;;;;24.38;11.10;;;16.00;99.90;;;;;;5013314;28;20085;-52
2023/09/29 03:48:50;;;;;;;22.38;11.10;;;16.00;99.90;;;;;;5001607;28;20085;-50
2023/09/29 03:51:23;;;;;;;21.65;10.57;;;15.90;99.90;;;;;;5001440;28;20524;-49
2023/09/29 03:53:50;;;;;;;21.65;11.27;;;16.00;99.90;;;;;;5005343;28;20064;-48
2023/09/29 03:56:16;;;;;;;21.65;11.75;;;16.00;99.90;;;;;;5007491;28;20038;-48
2023/09/29 03:58:42;;;;;;;19.35;12.00;;;16.00;99.90;;;;;;5014411;28;20046;-48
2023/09/29 04:01:08;;;;;;;21.83;12.55;;;15.90;99.90;;;;;;5005755;28;20121;-48
2023/09/29 04:03:34;;;;;;;22.85;11.68;;;15.90;99.90;;;;;;5005157;28;20449;-49
2023/09/29 04:05:59;;;;;;;23.30;11.50;;;15.90;99.90;;;;;;5004776;28;20057;-49
2023/09/29 04:08:25;;;;;;;19.52;12.13;;;16.00;99.90;;;;;;5005174;28;20064;-52
2023/09/29 04:10:52;;;;;;;26.20;12.50;;;16.00;99.90;;;;;;5005825;28;20046;-51
2023/09/29 04:13:19;;;;;;;24.20;12.30;;;16.00;99.90;;;;;;5004199;28;20206;-50
2023/09/29 04:15:44;;;;;;;17.27;11.82;;;16.00;99.90;;;;;;4987833;28;20129;-51
2023/09/29 04:18:10;;;;;;;24.63;12.10;;;16.00;99.90;;;;;;4987007;28;20057;-49
2023/09/29 04:20:35;;;;;;;22.13;11.82;;;16.00;99.90;;;;;;5006121;28;20041;-51
2023/09/29 04:23:01;;;;;;;21.92;12.15;;;16.10;99.90;;;;;;5005842;28;20137;-51
2023/09/29 04:25:27;;;;;;;20.92;11.52;;;16.10;99.90;;;;;;5005185;28;20054;-51
2023/09/29 04:27:52;;;;;;;19.42;11.13;;;16.10;99.90;;;;;;5005906;28;20076;-53
2023/09/29 04:30:18;;;;;;;24.17;12.43;;;16.10;99.90;;;;;;5005947;28;20046;-50
2023/09/29 04:32:47;;;;;;;23.92;12.63;;;16.10;99.90;;;;;;5004650;28;20073;-53
2023/09/29 04:35:12;;;;;;;20.90;12.85;;;16.10;99.90;;;;;;5005533;28;20057;-50
2023/09/29 04:37:38;;;;;;;23.55;12.57;;;16.20;99.90;;;;;;4987863;28;20400;-50
2023/09/29 04:40:04;;;;;;;20.98;12.52;;;16.20;99.90;;;;;;5016247;28;20051;-51
2023/09/29 04:42:32;;;;;;;25.13;12.93;;;16.20;99.90;;;;;;5013424;28;20041;-50
2023/09/29 04:44:58;;;;;;;18.30;12.20;;;16.20;99.90;;;;;;5014450;28;20578;-54
2023/09/29 04:47:24;;;;;;;21.75;13.35;;;16.20;99.90;;;;;;5013215;28;20041;-50
2023/09/29 04:49:49;;;;;;;29.58;13.70;;;16.40;99.90;;;;;;5012482;28;20551;-52
2023/09/29 04:52:16;;;;;;;20.83;12.20;;;16.20;99.90;;;;;;5015057;28;20046;-47
2023/09/29 04:54:41;;;;;;;25.90;13.20;;;16.20;99.90;;;;;;5005815;28;20045;-48
2023/09/29 04:57:07;;;;;;;29.67;13.90;;;16.30;99.90;;;;;;5005577;28;20046;-50
2023/09/29 04:59:32;;;;;;;19.70;12.98;;;16.30;99.90;;;;;;5018977;28;20071;-50
2023/09/29 05:01:58;;;;;;;20.95;13.18;;;16.30;99.90;;;;;;5023404;28;20141;-52
2023/09/29 05:04:24;;;;;;;23.58;14.20;;;16.30;99.90;;;;;;5023004;28;20041;-53
2023/09/29 05:06:49;;;;;;;24.38;13.70;;;16.30;99.90;;;;;;5024207;28;20040;-50
2023/09/29 05:09:15;;;;;;;18.50;13.32;;;16.30;99.90;;;;;;5004726;28;20524;-51
2023/09/29 05:11:41;;;;;;;21.90;14.18;;;16.30;99.90;;;;;;4970626;28;20069;-52
2023/09/29 05:14:07;;;;;;;23.45;14.23;;;16.40;99.90;;;;;;5003042;28;20496;-47
2023/09/29 05:16:33;;;;;;;21.88;12.88;;;16.40;99.90;;;;;;4986833;28;20041;-52
2023/09/29 05:18:59;;;;;;;19.85;13.27;;;16.30;99.90;;;;;;5003053;28;20187;-49
2023/09/29 05:21:26;;;;;;;23.52;13.15;;;16.40;99.90;;;;;;5003933;28;20049;-53
2023/09/29 05:23:52;;;;;;;21.20;13.23;;;16.40;99.90;;;;;;5004678;28;20449;-50
2023/09/29 05:26:18;;;;;;;20.55;14.23;;;16.40;99.90;;;;;;4970122;28;20140;-49
2023/09/29 05:28:44;;;;;;;29.70;13.82;;;16.40;99.90;;;;;;5004567;28;20452;-52
2023/09/29 05:31:10;;;;;;;25.00;14.70;;;16.50;99.90;;;;;;5002834;28;20069;-47
2023/09/29 05:33:36;;;;;;;18.52;13.00;;;16.40;99.90;;;;;;5003878;28;20064;-53
2023/09/29 05:36:03;;;;;;;20.08;13.15;;;16.40;99.90;;;;;;5003826;28;20562;-51
2023/09/29 05:38:29;;;;;;;22.00;12.32;;;16.40;99.90;;;;;;5003455;28;20129;-50
2023/09/29 05:40:54;;;;;;;20.95;13.85;;;16.50;99.90;;;;;;5012375;28;20085;-52
2023/09/29 05:43:20;;;;;;;24.65;14.38;;;16.50;99.90;;;;;;5023271;28;20045;-47
2023/09/29 05:45:46;;;;;;;22.77;14.25;;;16.50;99.90;;;;;;5022258;28;20049;-50
2023/09/29 05:48:12;;;;;;;23.45;14.00;;;16.40;99.90;;;;;;5023217;28;20056;-50
2023/09/29 05:50:38;;;;;;;19.55;13.98;;;16.40;99.90;;;;;;5023674;28;20037;-49
2023/09/29 05:53:04;;;;;;;21.15;14.05;;;16.50;99.90;;;;;;5024649;28;20042;-49
2023/09/29 05:55:30;;;;;;;22.98;13.57;;;16.50;99.90;;;;;;5021144;28;20150;-53
2023/09/29 05:57:56;;;;;;;21.42;13.43;;;16.50;99.90;;;;;;5014470;28;20125;-51
2023/09/29 06:00:24;;;;;;;20.60;13.27;;;16.50;99.90;;;;;;5010547;28;20389;-52
2023/09/29 06:02:50;;;;;;;21.35;13.65;;;16.60;99.90;;;;;;5004920;28;20068;-49
2023/09/29 06:05:15;;;;;;;20.48;12.90;;;16.70;99.90;;;;;;5023293;28;20575;-52
2023/09/29 06:07:41;;;;;;;21.83;14.02;;;16.60;99.90;;;;;;5022318;28;20057;-52
2023/09/29 06:10:09;;;;;;;20.67;13.07;;;16.60;99.90;;;;;;5005757;28;20050;-50
2023/09/29 06:12:35;;;;;;;17.48;13.27;;;16.60;99.90;;;;;;5022301;28;20227;-50
2023/09/29 06:15:01;;;;;;;24.17;14.20;;;16.60;99.90;;;;;;5022951;28;20052;-49
2023/09/29 06:17:27;;;;;;;22.75;14.05;;;16.60;99.90;;;;;;5004444;28;20045;-53
2023/09/29 06:19:53;;;;;;;19.73;13.80;;;16.50;99.90;;;;;;5021416;28;20045;-49
2023/09/29 06:22:18;;;;;;;18.15;13.07;;;16.50;99.90;;;;;;5023095;28;20464;-53
2023/09/29 06:24:44;;;;;;;21.17;13.48;;;16.60;99.90;;;;;;4986585;28;20042;-50
2023/09/29 06:27:11;;;;;;;26.77;14.65;;;16.60;99.90;;;;;;5003528;28;20785;-52
2023/09/29 06:29:39;;;;;;;22.33;13.32;;;16.60;99.90;;;;;;5003041;28;20493;-51
2023/09/29 06:32:05;;;;;;;20.83;13.48;;;16.60;99.90;;;;;;5002599;28;20041;-50
2023/09/29 06:34:31;;;;;;;21.48;13.18;;;16.60;99.90;;;;;;5002890;28;20081;-53
2023/09/29 06:36:56;;;;;;;22.08;14.52;;;16.60;99.90;;;;;;5002165;28;20570;-52
2023/09/29 06:39:22;;;;;;;19.13;13.07;;;16.70;99.90;;;;;;5002738;28;20520;-53
2023/09/29 06:41:48;;;;;;;19.13;12.80;;;16.60;99.90;;;;;;5002854;28;20033;-50
2023/09/29 06:44:13;;;;;;;21.10;12.95;;;16.60;99.90;;;;;;5015984;28;20519;-50
2023/09/29 06:46:39;;;;;;;20.30;11.88;;;16.60;99.90;;;;;;5020298;28;20137;-52
2023/09/29 06:49:04;;;;;;;20.33;12.57;;;16.70;99.90;;;;;;5020722;28;20041;-48
2023/09/29 06:51:30;;;;;;;19.63;12.40;;;16.70;99.90;;;;;;5022412;28;20048;-51
2023/09/29 06:53:56;;;;;;;15.43;11.10;;;16.70;99.90;;;;;;5010132;28;20443;-48
2023/09/29 06:56:22;;;;;;;14.10;10.38;;;16.80;99.90;;;;;;5005051;28;20085;-51
2023/09/29 06:58:47;;;;;;;14.65;10.70;;;16.70;99.90;;;;;;5010790;28;20500;-51
2023/09/29 07:01:13;;;;;;;18.48;11.30;;;16.80;99.90;;;;;;5002979;28;20412;-53
2023/09/29 07:03:39;;;;;;;16.52;11.27;;;16.90;99.90;;;;;;5007441;28;20045;-50
2023/09/29 07:06:05;;;;;;;17.70;10.73;;;16.90;99.90;;;;;;5006106;28;20045;-54
2023/09/29 07:08:31;;;;;;;18.65;10.20;;;16.80;99.90;;;;;;5020668;28;20064;-50
2023/09/29 07:10:57;;;;;;;17.55;10.15;;;16.90;99.90;;;;;;5020733;28;20438;-50
2023/09/29 07:13:23;;;;;;;12.73;9.43;;;16.80;99.90;;;;;;5021681;28;20045;-47
2023/09/29 07:15:49;;;;;;;13.98;9.20;;;16.80;99.90;;;;;;5019048;28;20481;-48
2023/09/29 07:18:16;;;;;;;12.55;8.85;;;16.90;99.90;;;;;;5012066;28;20060;-51
2023/09/29 07:20:42;;;;;;;15.07;8.43;;;16.90;99.90;;;;;;4983751;28;20061;-52
2023/09/29 07:23:08;;;;;;;15.98;8.63;;;17.00;99.90;;;;;;5004414;28;20523;-51
2023/09/29 07:25:37;;;;;;;13.93;8.18;;;17.10;99.90;;;;;;5018877;28;20092;-51
2023/09/29 07:28:04;;;;;;;11.93;8.45;;;17.10;99.90;;;;;;5014353;28;20084;-49
2023/09/29 07:30:30;;;;;;;13.32;8.18;;;17.20;99.90;;;;;;5005801;28;20042;-53
2023/09/29 07:32:55;;;;;;;14.65;8.60;;;17.10;99.90;;;;;;5005098;28;20041;-50
2023/09/29 07:35:21;;;;;;;10.63;8.18;;;17.20;99.90;;;;;;5006464;28;20472;-52
2023/09/29 07:37:47;;;;;;;11.68;7.68;;;17.30;99.90;;;;;;5005190;28;20046;-50
2023/09/29 07:40:13;;;;;;;12.02;7.35;;;17.30;99.90;;;;;;5005618;28;20121;-51
2023/09/29 07:42:38;;;;;;;10.90;6.72;;;17.40;99.90;;;;;;5006765;28;20107;-53
2023/09/29 07:45:04;;;;;;;14.18;7.22;;;17.40;99.90;;;;;;5004782;28;20037;-52
2023/09/29 07:47:30;;;;;;;8.15;5.88;;;17.60;99.90;;;;;;5004560;28;20046;-51
2023/09/29 07:49:55;;;;;;;15.30;6.90;;;17.60;99.90;;;;;;5005467;28;20042;-50
2023/09/29 07:52:27;;;;;;;14.07;6.75;;;17.70;99.90;;;;;;5009004;28;20049;-50
2023/09/29 07:54:54;;;;;;;11.60;6.22;;;17.80;99.90;;;;;;5017176;28;20057;-51
2023/09/29 07:57:19;;;;;;;10.25;6.18;;;17.90;99.90;;;;;;5016936;28;20936;-53
2023/09/29 07:59:45;;;;;;;10.27;6.10;;;18.00;99.90;;;;;;4984061;28;20050;-48
2023/09/29 08:02:10;;;;;;;11.48;5.45;;;18.20;99.90;;;;;;5007272;28;20645;-50
2023/09/29 08:04:36;;;;;;;9.93;6.25;;;18.30;99.90;;;;;;5025999;28;20207;-53
2023/09/29 08:07:02;;;;;;;8.55;6.07;;;18.30;99.90;;;;;;5026692;28;20049;-51
2023/09/29 08:09:27;;;;;;;10.32;5.97;;;18.40;99.90;;;;;;5025242;28;20060;-52
2023/09/29 08:11:53;;;;;;;11.48;6.20;;;18.40;99.90;;;;;;5024754;28;20049;-47
2023/09/29 08:14:19;;;;;;;11.18;5.65;;;18.30;99.90;;;;;;5026227;28;20094;-52
2023/09/29 08:16:44;;;;;;;7.82;5.72;;;18.30;99.90;;;;;;5025574;28;20042;-50
2023/09/29 08:19:10;;;;;;;9.35;5.70;;;18.30;99.90;;;;;;5025974;28;20042;-50
2023/09/29 08:21:35;;;;;;;9.25;5.43;;;18.30;99.90;;;;;;5024617;28;20037;-48
2023/09/29 08:24:06;;;;;;;8.45;5.65;;;18.20;99.90;;;;;;5025220;28;20138;-46
2023/09/29 08:26:32;;;;;;;12.15;5.68;;;18.30;99.90;;;;;;5023978;28;20041;-54
2023/09/29 08:29:00;;;;;;;9.95;5.18;;;18.50;99.90;;;;;;5025234;28;20048;-54
2023/09/29 08:31:25;;;;;;;10.73;5.38;;;18.60;99.90;;;;;;5024200;28;20045;-51
2023/09/29 08:33:51;;;;;;;7.00;4.72;;;18.80;99.90;;;;;;5024939;28;20103;-54
2023/09/29 08:36:17;;;;;;;9.50;4.43;;;18.80;99.90;;;;;;5007475;28;20049;-46
2023/09/29 08:38:43;;;;;;;8.57;4.88;;;18.90;99.90;;;;;;5005709;28;20091;-50
2023/09/29 08:41:09;;;;;;;5.68;4.13;;;19.00;99.90;;;;;;5025328;28;20053;-54
2023/09/29 08:43:37;;;;;;;7.65;4.13;;;19.10;99.90;;;;;;5023513;28;20048;-51
2023/09/29 08:46:03;;;;;;;7.10;4.22;;;19.30;99.90;;;;;;5024742;28;20486;-49
2023/09/29 08:48:32;;;;;;;7.70;4.07;;;19.30;99.90;;;;;;5023489;28;20105;-58
2023/09/29 08:51:01;;;;;;;6.43;4.45;;;19.50;99.90;;;;;;5024434;28;20049;-58
2023/09/29 08:53:28;;;;;;;7.35;4.30;;;19.50;99.90;;;;;;5025394;28;20072;-56
2023/09/29 08:55:55;;;;;;;6.45;3.90;;;19.60;99.90;;;;;;5022720;28;20416;-59
2023/09/29 08:58:23;;;;;;;10.23;4.40;;;19.60;99.90;;;;;;5013885;28;20053;-58
2023/09/29 09:00:50;;;;;;;7.43;4.22;;;19.70;99.90;;;;;;4987872;28;20057;-59
2023/09/29 09:03:16;;;;;;;8.82;4.53;;;20.00;99.90;;;;;;5005743;28;20555;-57
2023/09/29 09:05:41;;;;;;;8.10;4.15;;;20.20;99.90;;;;;;5005438;28;20128;-56
2023/09/29 09:08:07;;;;;;;6.38;4.07;;;20.40;99.90;;;;;;5004347;28;20617;-58
2023/09/29 09:10:34;;;;;;;7.70;4.13;;;20.50;99.90;;;;;;5004968;28;20042;-54
2023/09/29 09:13:01;;;;;;;6.30;3.95;;;20.60;99.90;;;;;;5005576;28;20052;-55
2023/09/29 09:15:27;;;;;;;7.50;3.90;;;20.80;99.90;;;;;;5004431;28;20125;-57
2023/09/29 09:17:54;;;;;;;6.10;4.05;;;20.90;99.90;;;;;;5004059;28;20133;-58
2023/09/29 09:20:20;;;;;;;7.22;4.00;;;21.00;99.90;;;;;;5005278;28;20169;-56
2023/09/29 09:23:00;;;;;;;6.45;3.80;;;21.20;99.90;;;;;;5005556;28;20578;-56
2023/09/29 09:25:38;;;;;;;6.70;3.40;;;21.30;99.90;;;;;;5005169;28;20088;-57
2023/09/29 09:28:04;;;;;;;6.45;3.45;;;21.30;99.90;;;;;;5004888;28;20050;-58
2023/09/29 09:30:35;;;;;;;9.63;3.53;;;21.40;99.90;;;;;;5004668;28;20436;-55
2023/09/29 09:33:04;;;;;;;7.10;3.38;;;21.60;99.90;;;;;;5004460;28;20180;-59
2023/09/29 09:35:29;;;;;;;8.77;3.92;;;21.80;99.90;;;;;;4987332;28;20049;-57
2023/09/29 09:37:56;;;;;;;6.95;3.60;;;21.80;99.90;;;;;;5003800;28;20496;-56
2023/09/29 09:40:26;;;;;;;7.15;3.88;;;21.90;99.90;;;;;;4987509;28;20042;-56
2023/09/29 09:43:03;;;;;;;6.93;3.28;;;21.90;99.90;;;;;;5004875;28;20042;-59
2023/09/29 09:45:39;;;;;;;7.70;3.60;;;21.80;99.90;;;;;;5004806;28;20128;-57
2023/09/29 09:48:09;;;;;;;8.63;3.72;;;21.60;99.90;;;;;;5004056;28;20127;-58
2023/09/29 09:50:38;;;;;;;8.27;3.28;;;21.40;99.90;;;;;;5003417;28;20049;-57
2023/09/29 09:53:07;;;;;;;5.70;3.38;;;21.30;99.90;;;;;;5009732;28;20052;-54
2023/09/29 09:55:39;;;;;;;7.78;3.38;;;21.30;99.90;;;;;;5005270;28;20054;-59
2023/09/29 09:58:10;;;;;;;6.35;3.13;;;21.20;99.90;;;;;;5005321;28;20038;-59
2023/09/29 10:00:39;;;;;;;7.50;3.33;;;21.20;99.90;;;;;;5008846;28;20057;-60
2023/09/29 10:03:11;;;;;;;8.10;3.25;;;21.30;99.90;;;;;;5014204;28;20129;-59
2023/09/29 10:05:41;;;;;;;5.70;2.55;;;21.30;99.90;;;;;;5009418;28;20042;-59
2023/09/29 10:08:10;;;;;;;6.57;3.00;;;21.40;99.90;;;;;;5003665;28;20064;-60
2023/09/29 10:10:43;;;;;;;7.10;2.92;;;21.50;99.90;;;;;;4985616;28;20046;-59
2023/09/29 10:13:11;;;;;;;7.22;2.85;;;21.70;99.90;;;;;;5009551;28;20045;-58
2023/09/29 10:15:53;;;;;;;3.80;2.50;;;21.90;99.90;;;;;;5009146;28;20129;-59
2023/09/29 10:18:20;;;;;;;5.95;3.08;;;22.00;99.90;;;;;;5016585;28;20045;-60
2023/09/29 10:20:54;;;;;;;6.43;2.92;;;21.90;99.90;;;;;;5024153;28;20053;-58
2023/09/29 10:23:20;;;;;;;6.28;3.15;;;21.80;99.90;;;;;;5018449;28;20033;-59
2023/09/29 10:25:58;;;;;;;6.47;2.90;;;21.90;99.90;;;;;;5013917;28;20095;-59
2023/09/29 10:28:32;;;;;;;7.57;3.28;;;21.90;99.90;;;;;;5003881;28;20081;-58
2023/09/29 10:31:14;;;;;;;5.05;2.95;;;22.00;99.90;;;;;;5003327;28;20065;-58
2023/09/29 10:33:52;;;;;;;5.70;2.72;;;22.20;99.90;;;;;;5013150;28;20046;-58
2023/09/29 10:36:27;;;;;;;5.50;3.13;;;22.10;99.90;;;;;;5003564;28;20081;-58
2023/09/29 10:38:57;;;;;;;6.50;2.83;;;22.10;99.90;;;;;;5003511;28;20045;-58
2023/09/29 10:41:23;;;;;;;6.65;3.38;;;22.00;99.90;;;;;;5003875;28;20116;-59
2023/09/29 10:43:50;;;;;;;8.75;3.40;;;22.00;99.90;;;;;;5003511;28;20037;-57
2023/09/29 10:46:17;;;;;;;7.80;3.40;;;21.90;99.90;;;;;;5002862;28;20046;-60
2023/09/29 10:48:46;;;;;;;6.90;3.20;;;21.90;99.90;;;;;;5003656;28;20049;-58
2023/09/29 10:51:20;;;;;;;6.22;3.33;;;21.90;99.90;;;;;;4984773;28;20057;-58
2023/09/29 10:53:46;;;;;;;7.82;3.65;;;21.70;99.90;;;;;;5003856;28;20265;-58
2023/09/29 10:56:16;;;;;;;5.32;2.90;;;21.60;99.90;;;;;;5006302;28;20124;-58
2023/09/29 10:58:42;;;;;;;6.93;3.40;;;21.50;99.90;;;;;;5011665;28;20046;-57
2023/09/29 11:01:08;;;;;;;5.72;3.38;;;21.40;99.90;;;;;;5002114;28;20050;-58
2023/09/29 11:03:35;;;;;;;5.70;3.35;;;21.40;99.90;;;;;;5009991;28;20113;-57
2023/09/29 11:06:08;;;;;;;6.53;3.22;;;21.20;99.90;;;;;;5006522;28;20488;-58
2023/09/29 11:08:38;;;;;;;5.57;3.20;;;21.10;99.90;;;;;;5002847;28;20429;-56
2023/09/29 11:11:06;;;;;;;7.25;3.33;;;21.10;99.90;;;;;;5003443;28;20042;-58
2023/09/29 11:13:32;;;;;;;6.68;3.20;;;21.10;99.90;;;;;;5002597;28;20542;-58
2023/09/29 11:15:59;;;;;;;7.88;3.30;;;21.10;99.90;;;;;;5004323;28;20452;-58
2023/09/29 11:18:33;;;;;;;7.97;3.75;;;21.10;99.90;;;;;;5022992;28;20146;-58
2023/09/29 11:21:00;;;;;;;6.68;3.78;;;21.00;99.90;;;;;;5022847;28;20057;-56
2023/09/29 11:23:28;;;;;;;6.72;3.50;;;21.00;99.90;;;;;;5023392;28;20064;-58
2023/09/29 11:25:58;;;;;;;8.82;3.35;;;20.90;99.90;;;;;;5014893;28;20045;-54
2023/09/29 11:28:26;;;;;;;5.18;3.55;;;20.90;99.90;;;;;;5002702;28;20077;-58
2023/09/29 11:30:52;;;;;;;5.28;3.40;;;20.80;99.90;;;;;;4985960;28;20049;-50
2023/09/29 11:33:19;;;;;;;7.68;3.85;;;20.80;99.90;;;;;;5003182;28;20523;-58
2023/09/29 11:35:47;;;;;;;7.07;4.00;;;20.90;99.90;;;;;;5002577;28;20658;-55
2023/09/29 11:38:16;;;;;;;6.55;3.95;;;20.70;99.90;;;;;;5002205;28;20883;-58
2023/09/29 11:40:43;;;;;;;9.25;4.50;;;20.60;99.90;;;;;;4985690;28;20123;-54
2023/09/29 11:43:10;;;;;;;6.80;4.57;;;20.50;99.90;;;;;;5000996;28;20056;-57
2023/09/29 11:45:35;;;;;;;7.32;4.82;;;20.50;99.90;;;;;;5016119;28;20041;-56
2023/09/29 11:48:01;;;;;;;8.27;5.10;;;20.40;99.90;;;;;;5021381;28;20053;-58
2023/09/29 11:50:28;;;;;;;7.25;5.07;;;20.20;99.90;;;;;;4998513;28;20046;-57
2023/09/29 11:52:54;;;;;;;7.03;5.05;;;20.30;99.90;;;;;;5021963;28;20460;-56
2023/09/29 11:55:20;;;;;;;8.25;5.22;;;20.30;99.90;;;;;;5021925;28;20041;-58
2023/09/29 11:57:45;;;;;;;7.78;5.30;;;20.30;99.90;;;;;;5013114;28;20062;-53
2023/09/29 12:00:13;;;;;;;9.73;5.53;;;20.40;99.90;;;;;;5015886;28;20041;-58
2023/09/29 12:02:39;;;;;;;10.55;5.57;;;20.40;99.90;;;;;;5002316;28;20053;-52
2023/09/29 12:05:06;;;;;;;8.85;5.60;;;20.50;99.90;;;;;;5011391;28;20046;-58
2023/09/29 12:07:33;;;;;;;9.20;5.93;;;20.50;99.90;;;;;;5002438;28;20058;-57
2023/09/29 12:09:59;;;;;;;8.27;5.57;;;20.60;99.90;;;;;;5000769;28;20085;-51
2023/09/29 12:12:25;;;;;;;9.38;4.90;;;20.60;99.90;;;;;;4984953;28;20060;-58
2023/09/29 12:14:53;;;;;;;10.20;5.40;;;20.50;99.90;;;;;;5006698;28;20041;-57
2023/09/29 12:17:20;;;;;;;10.02;5.32;;;20.50;99.90;;;;;;5004811;28;20446;-58
2023/09/29 12:19:46;;;;;;;12.15;5.68;;;20.50;99.90;;;;;;5005363;28;20053;-56
2023/09/29 12:22:12;;;;;;;9.90;5.15;;;20.50;99.90;;;;;;5005553;28;20042;-58
2023/09/29 12:24:40;;;;;;;8.98;5.47;;;20.40;99.90;;;;;;5018555;28;20114;-56
2023/09/29 12:27:08;;;;;;;11.70;5.35;;;20.40;99.90;;;;;;5014399;28;20053;-59
2023/09/29 12:29:34;;;;;;;7.82;4.80;;;20.40;99.90;;;;;;5006748;28;20050;-57
2023/09/29 12:31:59;;;;;;;9.38;5.90;;;20.30;99.90;;;;;;5005038;28;20092;-58
2023/09/29 12:34:25;;;;;;;9.55;5.32;;;20.20;99.90;;;;;;5006056;28;20502;-57
2023/09/29 12:36:51;;;;;;;7.57;5.30;;;20.10;99.90;;;;;;4987568;28;20056;-60
2023/09/29 12:39:18;;;;;;;9.45;5.88;;;20.10;99.90;;;;;;5005820;28;20064;-65